Time;durP1;ratioP1;P1;durP2;ratioP2;P2;SDS_P1;SDS_P2;PMS_P1;PMS_P2;Temp;Humidity;BMP_temperature;BMP_pressure;BME280_temperature;BME280_humidity;BME280_pressure;Samples;Min_cycle;Max_cycle;Signal;HPM_P1;HPM_P2
2022/02/04 00:03:02;;;;;;;;;26.75;22.00;;;;;9.62;66.11;100962.31;4919632;28;45429;-60
2022/02/04 00:07:07;;;;;;;;;17.75;15.75;;;;;9.62;66.25;100954.44;4938834;28;45343;-60
2022/02/04 00:20:30;;;;;;;;;19.75;17.00;;;;;9.62;65.74;100938.69;4938670;28;45311;-61
2022/02/04 00:23:08;;;;;;;;;32.75;31.00;;;;;9.61;65.98;100937.03;4936785;28;46229;-60
2022/02/04 00:28:28;;;;;;;;;28.25;23.00;;;;;9.60;65.68;100940.59;4938336;28;45412;-60
2022/02/04 00:33:40;;;;;;;;;16.25;15.50;;;;;9.60;65.64;100929.28;4938477;28;45388;-60
2022/02/04 00:36:15;;;;;;;;;17.25;15.00;;;;;9.56;65.94;100939.16;4938339;28;45411;-60
2022/02/04 00:38:44;;;;;;;;;18.00;16.50;;;;;9.57;65.67;100938.22;4937103;28;45329;-60
2022/02/04 00:41:12;;;;;;;;;19.00;16.00;;;;;9.55;65.74;100934.88;4938302;28;45467;-60
2022/02/04 00:43:39;;;;;;;;;19.75;15.00;;;;;9.54;65.76;100932.38;4938062;28;45966;-60
2022/02/04 00:46:13;;;;;;;;;18.50;15.50;;;;;9.51;65.95;100928.22;4938127;28;45400;-59
2022/02/04 00:57:11;;;;;;;;;14.50;14.50;;;;;9.47;65.90;100918.94;4930758;28;45403;-61
2022/02/04 01:26:39;;;;;;;;;17.00;14.25;;;;;9.47;66.29;100924.16;4937418;28;45280;-60
2022/02/04 01:29:06;;;;;;;;;14.25;13.00;;;;;9.47;66.07;100929.41;4936666;28;61231;-60
2022/02/04 01:31:32;;;;;;;;;17.50;15.75;;;;;9.47;66.29;100925.00;4937859;28;45249;-61
2022/02/04 01:33:57;;;;;;;;;16.00;15.00;;;;;9.47;66.32;100926.78;4939038;28;45284;-60
2022/02/04 01:36:23;;;;;;;;;14.25;13.25;;;;;9.47;66.32;100924.16;4940097;28;67861;-60
2022/02/04 01:38:48;;;;;;;;;13.75;13.75;;;;;9.46;66.17;100919.88;4940236;28;61663;-60
2022/02/04 01:41:14;;;;;;;;;15.25;14.00;;;;;9.47;66.44;100924.16;4940235;28;65089;-60
2022/02/04 01:43:39;;;;;;;;;14.25;13.25;;;;;9.47;66.27;100921.56;4940800;28;45522;-61
2022/02/04 01:46:06;;;;;;;;;17.00;13.25;;;;;9.47;66.13;100921.56;4940623;28;46302;-60
2022/02/04 01:48:32;;;;;;;;;16.25;14.00;;;;;9.47;66.14;100918.94;4940751;28;45443;-61
2022/02/04 01:50:57;;;;;;;;;12.75;12.00;;;;;9.48;66.20;100920.59;4940884;28;45386;-61
2022/02/04 01:53:28;;;;;;;;;13.25;11.25;;;;;9.47;66.50;100925.00;4940718;28;45508;-60
2022/02/04 01:55:55;;;;;;;;;14.25;13.50;;;;;9.47;66.40;100919.75;4940819;28;46054;-60
2022/02/04 01:58:21;;;;;;;;;17.25;16.50;;;;;9.47;66.61;100919.75;4940625;28;45980;-60
2022/02/04 02:00:46;;;;;;;;;13.75;13.75;;;;;9.46;66.62;100927.75;4939682;28;68934;-60
2022/02/04 02:03:12;;;;;;;;;16.75;14.00;;;;;9.45;66.57;100924.28;4939811;28;64560;-60
2022/02/04 02:05:37;;;;;;;;;12.00;10.00;;;;;9.45;66.29;100915.59;4907249;28;45305;-61
2022/02/04 02:08:07;;;;;;;;;15.50;12.50;;;;;9.44;66.59;100919.16;4940453;28;45290;-60
2022/02/04 02:10:32;;;;;;;;;16.25;13.25;;;;;9.45;66.61;100923.47;4940321;28;45713;-60
2022/02/04 02:35:22;;;;;;;;;21.25;15.50;;;;;9.40;66.57;100896.75;4925594;28;45390;-60
2022/02/04 02:40:59;;;;;;;;;19.50;16.00;;;;;9.38;66.24;100896.84;4940209;28;45313;-60
2022/02/04 02:43:14;;;;;;;;;17.00;14.25;;;;;9.36;66.89;100888.28;4940043;28;45352;-60
2022/02/04 02:56:50;;;;;;;;;18.00;14.00;;;;;9.32;67.63;100885.06;4939953;28;45384;-60
2022/02/04 03:01:29;;;;;;;;;26.75;18.75;;;;;9.26;67.85;100880.28;4939697;28;45884;-59
2022/02/04 03:03:57;;;;;;;;;18.75;16.25;;;;;9.23;67.86;100877.09;4939838;28;45280;-60
2022/02/04 03:06:23;;;;;;;;;20.75;16.00;;;;;9.22;68.12;100872.78;4939699;28;45522;-61
2022/02/04 03:08:49;;;;;;;;;19.00;15.75;;;;;9.20;68.05;100876.38;4939482;28;48610;-60
2022/02/04 03:11:14;;;;;;;;;20.75;20.00;;;;;9.20;68.04;100872.91;4939599;28;45347;-61
2022/02/04 03:13:42;;;;;;;;;18.00;14.75;;;;;9.21;68.05;100877.19;4939483;28;45336;-60
2022/02/04 03:16:10;;;;;;;;;18.00;14.00;;;;;9.20;67.92;100872.91;4939621;28;45474;-60
2022/02/04 03:18:38;;;;;;;;;16.50;15.50;;;;;9.20;67.74;100875.53;4939228;28;46227;-60
2022/02/04 03:21:13;;;;;;;;;18.50;15.00;;;;;9.20;67.73;100862.41;4939469;28;45927;-60
2022/02/04 03:23:41;;;;;;;;;13.25;11.50;;;;;9.19;67.60;100871.22;4939606;28;45363;-60
2022/02/04 03:26:16;;;;;;;;;16.75;14.25;;;;;9.15;68.01;100864.56;4939402;28;45231;-60
2022/02/04 03:28:41;;;;;;;;;13.50;13.00;;;;;9.11;67.82;100861.34;4938919;28;45571;-60
2022/02/04 03:31:08;;;;;;;;;12.25;10.25;;;;;9.10;67.96;100856.22;4939263;28;45372;-60
2022/02/04 03:33:34;;;;;;;;;13.75;12.00;;;;;9.10;68.32;100848.34;4939391;28;45327;-60
2022/02/04 03:36:00;;;;;;;;;15.75;12.00;;;;;9.10;68.30;100853.59;4938043;28;45537;-60
2022/02/04 03:38:25;;;;;;;;;13.25;12.00;;;;;9.09;68.03;100851.91;4938055;28;73685;-60
2022/02/04 03:40:50;;;;;;;;;14.00;13.00;;;;;9.05;68.35;100857.38;4938261;28;69444;-61
2022/02/04 03:43:16;;;;;;;;;15.75;15.00;;;;;9.02;68.81;100847.16;4938361;28;59449;-60
2022/02/04 03:45:41;;;;;;;;;16.75;12.50;;;;;9.02;68.83;100851.56;4937982;28;68818;-60
2022/02/04 03:48:06;;;;;;;;;15.25;11.50;;;;;9.02;68.72;100854.19;4938194;28;67615;-60
2022/02/04 03:50:32;;;;;;;;;13.00;13.00;;;;;8.98;68.75;100850.97;4939079;28;45368;-60
2022/02/04 03:52:57;;;;;;;;;13.25;12.75;;;;;8.96;69.06;100844.16;4939032;28;45770;-60
2022/02/04 03:55:23;;;;;;;;;13.50;11.75;;;;;8.94;69.27;100852.16;4938141;28;64812;-61
2022/02/04 03:57:48;;;;;;;;;17.00;13.75;;;;;8.95;69.09;100850.38;4937836;28;56978;-60
2022/02/04 04:00:16;;;;;;;;;15.00;10.50;;;;;8.94;69.06;100854.78;4938913;28;45350;-60
2022/02/04 04:02:41;;;;;;;;;15.25;12.25;;;;;8.92;69.10;100856.69;4939103;28;45343;-60
2022/02/04 04:05:08;;;;;;;;;16.50;13.00;;;;;8.91;69.12;100849.78;4938288;28;56531;-60
2022/02/04 04:07:35;;;;;;;;;16.25;13.00;;;;;8.89;69.19;100856.91;4938693;28;46184;-61
2022/02/04 04:10:08;;;;;;;;;21.75;17.00;;;;;8.89;69.14;100854.31;4938535;28;45971;-61
2022/02/04 04:12:33;;;;;;;;;22.25;20.50;;;;;8.86;69.34;100849.28;4938799;28;45260;-60
2022/02/04 04:15:05;;;;;;;;;16.50;16.25;;;;;8.85;69.34;100847.63;4938103;28;59246;-60
2022/02/04 04:17:37;;;;;;;;;32.50;26.50;;;;;8.85;69.19;100845.00;4938466;28;47173;-61
2022/02/04 04:20:03;;;;;;;;;31.75;25.25;;;;;8.82;69.65;100845.22;4938503;28;45280;-61
2022/02/04 04:22:28;;;;;;;;;23.75;19.00;;;;;8.81;69.56;100840.94;4938560;28;45232;-60
2022/02/04 04:24:54;;;;;;;;;18.50;13.50;;;;;8.81;69.73;100840.94;4937474;28;67863;-60
2022/02/04 04:27:19;;;;;;;;;23.00;20.50;;;;;8.79;69.53;100840.22;4937417;28;72952;-59
2022/02/04 04:29:45;;;;;;;;;77.00;58.00;;;;;8.77;69.69;100842.94;4937216;28;67800;-61
2022/02/04 04:32:10;;;;;;;;;45.75;33.50;;;;;8.78;69.92;100843.78;4938439;28;45410;-60
2022/02/04 04:34:36;;;;;;;;;19.25;17.00;;;;;8.79;69.60;100840.22;4938126;28;45910;-59
2022/02/04 04:37:01;;;;;;;;;21.25;17.00;;;;;8.78;69.60;100842.00;4938067;28;45221;-60
2022/02/04 04:39:33;;;;;;;;;26.75;21.00;;;;;8.78;69.92;100842.00;4938267;28;45254;-60
2022/02/04 04:42:18;;;;;;;;;18.00;18.00;;;;;8.77;69.88;100848.19;4938345;28;45470;-60
2022/02/04 05:28:27;;;;;;;;;24.25;17.00;;;;;8.76;70.42;100823.78;4937756;28;45313;-60
2022/02/04 05:30:53;;;;;;;;;34.75;29.75;;;;;8.76;70.27;100820.31;4937492;28;46296;-60
2022/02/04 05:33:18;;;;;;;;;36.00;28.50;;;;;8.76;70.47;100821.16;4937534;28;45236;-60
2022/02/04 05:35:43;;;;;;;;;46.50;36.50;;;;;8.78;70.60;100814.97;4936771;28;66141;-60
2022/02/04 05:38:11;;;;;;;;;32.75;30.50;;;;;8.78;70.50;100820.22;4937497;28;45231;-59
2022/02/04 05:40:41;;;;;;;;;22.25;18.75;;;;;8.75;70.53;100819.50;4937280;28;46196;-60
2022/02/04 05:43:14;;;;;;;;;26.25;23.75;;;;;8.76;70.51;100815.06;4937387;28;45396;-60
2022/02/04 05:45:41;;;;;;;;;21.50;18.00;;;;;8.74;70.76;100815.22;4937313;28;45281;-60
2022/02/04 05:48:07;;;;;;;;;22.75;21.75;;;;;8.74;70.68;100817.00;4937483;28;45229;-60
2022/02/04 05:50:40;;;;;;;;;23.75;22.25;;;;;8.74;70.58;100817.81;4937020;28;45362;-61
2022/02/04 05:53:15;;;;;;;;;31.00;25.00;;;;;8.76;70.55;100820.31;4921313;28;45387;-60
2022/02/04 05:55:53;;;;;;;;;27.50;23.75;;;;;8.73;70.52;100821.41;4937539;28;45445;-60
2022/02/04 06:01:12;;;;;;;;;15.25;13.50;;;;;8.71;70.81;100807.59;4920355;28;45879;-60
2022/02/04 06:06:51;;;;;;;;;27.75;23.25;;;;;8.68;71.03;100807.00;4937225;28;45296;-60
2022/02/04 06:22:22;;;;;;;;;23.00;19.00;;;;;8.66;71.42;100798.41;4940350;28;45371;-61
2022/02/04 06:24:49;;;;;;;;;24.00;20.50;;;;;8.63;71.26;100793.41;4940258;28;45267;-60
2022/02/04 06:27:14;;;;;;;;;26.25;21.75;;;;;8.64;71.24;100790.66;4939913;28;45821;-61
2022/02/04 06:29:40;;;;;;;;;24.00;21.25;;;;;8.65;71.05;100794.94;4922851;28;45531;-61
2022/02/04 06:32:06;;;;;;;;;28.00;24.25;;;;;8.65;71.22;100792.34;4907136;28;45328;-60
2022/02/04 06:34:31;;;;;;;;;22.25;19.00;;;;;8.66;71.18;100804.47;4939966;28;46268;-60
2022/02/04 06:36:57;;;;;;;;;27.25;18.75;;;;;8.67;71.27;100803.53;4922838;28;45326;-60
2022/02/04 06:39:22;;;;;;;;;37.00;28.50;;;;;8.67;71.32;100797.47;4938686;28;45396;-60
2022/02/04 06:41:47;;;;;;;;;32.25;30.25;;;;;8.69;71.06;100806.03;4938959;28;73262;-60
2022/02/04 06:44:13;;;;;;;;;18.25;13.75;;;;;8.69;71.30;100808.66;4939126;28;65295;-59
2022/02/04 06:46:39;;;;;;;;;24.25;19.75;;;;;8.70;71.27;100805.09;4939265;28;60001;-60
2022/02/04 06:49:05;;;;;;;;;26.50;20.00;;;;;8.70;71.08;100805.91;4940113;28;45212;-60
2022/02/04 06:51:30;;;;;;;;;29.00;24.00;;;;;8.71;71.20;100810.19;4938755;28;73789;-61
2022/02/04 06:53:55;;;;;;;;;25.75;20.50;;;;;8.71;71.38;100799.72;4939575;28;47215;-60
2022/02/04 06:56:21;;;;;;;;;25.75;19.75;;;;;8.72;71.14;100798.78;4939190;28;60700;-61
2022/02/04 06:58:46;;;;;;;;;27.75;24.75;;;;;8.73;71.16;100800.44;4939925;28;45494;-60
2022/02/04 07:01:12;;;;;;;;;28.00;25.00;;;;;8.73;71.33;100799.63;4939619;28;47002;-60
2022/02/04 07:03:37;;;;;;;;;39.00;34.00;;;;;8.71;70.99;100794.47;4939022;28;61787;-60
2022/02/04 07:06:04;;;;;;;;;32.75;28.25;;;;;8.71;71.40;100784.00;4939696;28;45438;-59
2022/02/04 07:08:44;;;;;;;;;33.75;30.25;;;;;8.72;71.10;100798.78;4939696;28;45260;-60
2022/02/04 07:21:59;;;;;;;;;36.25;32.00;;;;;8.75;71.41;100795.91;4939329;28;45294;-60
2022/02/04 07:24:25;;;;;;;;;24.00;19.00;;;;;8.76;71.40;100789.72;4905388;28;65847;-60
2022/02/04 07:26:50;;;;;;;;;27.75;20.75;;;;;8.78;71.30;100791.41;4938384;28;68163;-60
2022/02/04 07:29:16;;;;;;;;;39.75;34.50;;;;;8.78;71.46;100796.63;4938248;28;68861;-60
2022/02/04 07:31:41;;;;;;;;;22.00;20.75;;;;;8.77;71.16;100793.16;4938050;28;46114;-60
2022/02/04 07:34:24;;;;;;;;;33.00;25.00;;;;;8.77;71.37;100785.31;4938961;28;45250;-60
2022/02/04 07:41:58;;;;;;;;;23.00;21.25;;;;;8.75;71.36;100782.81;4939050;28;46036;-60
2022/02/04 07:44:24;;;;;;;;;40.00;32.00;;;;;8.74;71.85;100777.72;4938421;28;62978;-60
2022/02/04 07:46:49;;;;;;;;;26.75;24.75;;;;;8.74;71.72;100783.78;4938312;28;63889;-61
2022/02/04 07:49:14;;;;;;;;;24.50;19.75;;;;;8.74;71.66;100778.53;4938098;28;67629;-60
2022/02/04 07:51:40;;;;;;;;;30.50;25.50;;;;;8.74;71.77;100786.38;4937924;28;69765;-60
2022/02/04 07:54:06;;;;;;;;;23.25;19.00;;;;;8.74;72.00;100781.16;4938890;28;45312;-60
2022/02/04 07:56:32;;;;;;;;;21.50;18.00;;;;;8.74;71.79;100775.91;4939012;28;45416;-60
2022/02/04 07:59:00;;;;;;;;;24.00;21.50;;;;;8.76;71.90;100773.16;4938949;28;45382;-60
2022/02/04 08:01:29;;;;;;;;;20.25;16.00;;;;;8.76;71.68;100768.78;4938616;28;46223;-60
2022/02/04 08:04:01;;;;;;;;;22.00;18.00;;;;;8.78;71.82;100771.25;4938699;28;45287;-60
2022/02/04 08:06:28;;;;;;;;;23.00;20.75;;;;;8.79;71.74;100778.16;4938755;28;45305;-61
2022/02/04 08:09:01;;;;;;;;;22.50;21.50;;;;;8.79;71.86;100774.72;4938766;28;45276;-60
2022/02/04 08:14:26;;;;;;;;;21.75;21.00;;;;;8.83;71.67;100779.59;4938529;28;45812;-60
2022/02/04 08:32:45;;;;;;;;;20.25;16.00;;;;;8.90;71.67;100779.97;4938449;28;45446;-59
2022/02/04 08:53:59;;;;;;;;;24.25;19.00;;;;;8.99;71.44;100763.53;4957060;28;45426;-60
2022/02/04 08:57:37;;;;;;;;;22.00;16.50;;;;;9.01;71.66;100760.78;4957177;28;45388;-60
2022/02/04 08:59:31;;;;;;;;;26.75;22.00;;;;;9.01;71.72;100760.78;4948095;28;45193;-60
2022/02/04 09:02:04;;;;;;;;;23.00;19.50;;;;;9.03;71.70;100753.63;4952195;28;45389;-60
2022/02/04 09:04:50;;;;;;;;;25.00;23.00;;;;;9.04;71.41;100766.59;4956957;28;46165;-60
2022/02/04 09:07:18;;;;;;;;;24.25;20.50;;;;;9.05;71.55;100762.22;4957254;28;45650;-59
2022/02/04 09:09:50;;;;;;;;;18.75;15.50;;;;;9.05;71.93;100767.47;4955684;28;45315;-60
2022/02/04 09:20:40;;;;;;;;;24.50;22.00;;;;;9.10;71.48;100751.34;4957090;28;45700;-60
2022/02/04 09:23:05;;;;;;;;;17.50;15.50;;;;;9.11;71.38;100747.78;4926619;28;45404;-59
2022/02/04 09:25:30;;;;;;;;;17.75;17.75;;;;;9.12;71.14;100752.91;4955558;28;75507;-60
2022/02/04 09:27:56;;;;;;;;;20.75;17.25;;;;;9.13;71.35;100753.72;4955996;28;69660;-60
2022/02/04 09:30:22;;;;;;;;;19.75;18.00;;;;;9.14;71.23;100755.41;4955771;28;67679;-60
2022/02/04 09:32:47;;;;;;;;;19.50;14.25;;;;;9.16;71.07;100754.34;4956804;28;45564;-60
2022/02/04 09:35:23;;;;;;;;;16.75;16.25;;;;;9.16;70.95;100749.09;4939199;28;45441;-60
2022/02/04 09:37:52;;;;;;;;;14.25;12.25;;;;;9.18;70.78;100749.81;4956888;28;45822;-60
2022/02/04 09:40:17;;;;;;;;;18.25;15.00;;;;;9.19;70.82;100758.50;4956905;28;45428;-60
2022/02/04 09:42:43;;;;;;;;;24.25;22.25;;;;;9.21;70.78;100751.34;4956840;28;45446;-60
2022/02/04 09:45:11;;;;;;;;;27.00;20.25;;;;;9.22;71.00;100737.28;4955761;28;45939;-60
2022/02/04 09:47:38;;;;;;;;;25.00;21.75;;;;;9.24;71.00;100730.13;4956029;28;45819;-60
2022/02/04 09:50:04;;;;;;;;;25.75;23.50;;;;;9.28;70.82;100733.31;4955981;28;45335;-60
2022/02/04 10:19:13;;;;;;;;;15.50;12.50;;;;;9.44;70.14;100731.16;4940381;28;45492;-61
2022/02/04 10:21:39;;;;;;;;;14.50;14.50;;;;;9.43;70.43;100726.84;4940564;28;45327;-60
2022/02/04 10:24:05;;;;;;;;;13.00;12.00;;;;;9.46;70.44;100720.53;4940523;28;45236;-60
2022/02/04 10:26:30;;;;;;;;;12.50;11.25;;;;;9.45;70.61;100717.06;4939820;28;45552;-61
2022/02/04 10:28:56;;;;;;;;;21.50;19.00;;;;;9.45;70.33;100726.75;4939185;28;69376;-60
2022/02/04 10:31:23;;;;;;;;;21.75;18.75;;;;;9.43;70.49;100716.38;4940367;28;45224;-60
2022/02/04 10:34:00;;;;;;;;;14.00;12.25;;;;;9.43;70.27;100733.91;4940081;28;45357;-60
2022/02/04 10:45:25;;;;;;;;;9.00;8.50;;;;;9.53;70.19;100716.47;4940081;28;45205;-60
2022/02/04 10:51:10;;;;;;;;;15.00;13.25;;;;;9.63;70.04;100708.66;4940015;28;45339;-60
2022/02/04 10:53:43;;;;;;;;;12.25;9.25;;;;;9.67;69.72;100709.25;4939691;28;45245;-60
2022/02/04 11:01:30;;;;;;;;;12.75;11.75;;;;;9.78;69.72;100696.06;4958964;28;45391;-60
2022/02/04 11:05:02;;;;;;;;;8.75;8.00;;;;;9.82;69.12;100689.63;4959299;28;45485;-60
2022/02/04 11:07:12;;;;;;;;;10.75;10.75;;;;;9.85;69.16;100692.00;4934497;28;45444;-60
2022/02/04 11:31:49;;;;;;;;;13.25;11.00;;;;;10.18;68.25;100692.72;4943979;28;45390;-60
2022/02/04 11:34:14;;;;;;;;;8.50;7.50;;;;;10.20;68.01;100688.19;4958245;28;45374;-60
2022/02/04 11:51:50;;;;;;;;;12.00;11.50;;;;;10.39;67.10;100627.06;4958608;28;45255;-60
2022/02/04 11:56:55;;;;;;;;;15.00;8.50;;;;;10.50;66.49;100612.19;4958293;28;45281;-60
2022/02/04 11:59:37;;;;;;;;;14.50;11.50;;;;;10.63;66.73;100618.03;4957841;28;45410;-60
2022/02/04 12:02:33;;;;;;;;;23.25;18.00;;;;;10.79;66.37;100611.44;4958087;28;47622;-60
2022/02/04 12:05:08;;;;;;;;;12.75;10.25;;;;;10.96;66.56;100609.94;4939993;28;47703;-60
2022/02/04 12:07:55;;;;;;;;;18.25;17.50;;;;;11.18;65.84;100595.69;4940730;28;45332;-60
2022/02/04 12:10:20;;;;;;;;;10.75;9.75;;;;;11.37;65.59;100586.13;4957783;28;45394;-61
2022/02/04 12:13:08;;;;;;;;;6.00;6.00;;;;;11.54;64.89;100584.59;4958139;28;45536;-59
2022/02/04 12:15:45;;;;;;;;;7.75;6.50;;;;;11.73;64.79;100579.25;4957650;28;46026;-60
2022/02/04 12:18:20;;;;;;;;;8.50;7.00;;;;;11.91;64.14;100573.25;4957174;28;45409;-60
2022/02/04 12:20:53;;;;;;;;;7.75;6.75;;;;;12.04;63.91;100572.94;4957950;28;45370;-60
2022/02/04 12:23:41;;;;;;;;;6.25;6.00;;;;;12.19;63.09;100572.50;4957426;28;45444;-60
2022/02/04 12:26:09;;;;;;;;;6.25;5.50;;;;;12.30;62.10;100567.84;4957430;28;45470;-60
2022/02/04 12:28:38;;;;;;;;;7.75;5.50;;;;;12.40;61.51;100566.97;4957651;28;45847;-61
2022/02/04 12:31:11;;;;;;;;;5.00;4.25;;;;;12.50;61.58;100551.94;4957724;28;45449;-60
2022/02/04 12:33:51;;;;;;;;;4.00;4.00;;;;;12.58;60.99;100552.03;4956807;28;45238;-60
2022/02/04 12:36:23;;;;;;;;;5.50;4.50;;;;;12.62;60.21;100534.09;4957409;28;45418;-60
2022/02/04 12:38:49;;;;;;;;;4.50;3.00;;;;;12.65;59.78;100528.53;4956907;28;45362;-61
2022/02/04 12:41:21;;;;;;;;;5.75;4.00;;;;;12.67;59.49;100533.66;4956703;28;45282;-60
2022/02/04 12:43:48;;;;;;;;;4.50;4.25;;;;;12.71;59.50;100532.38;4958073;28;45558;-61
2022/02/04 12:46:14;;;;;;;;;6.25;6.25;;;;;12.75;59.40;100544.25;4957484;28;47159;-60
2022/02/04 12:48:39;;;;;;;;;4.75;3.75;;;;;12.79;58.36;100503.44;4939220;28;69275;-60
2022/02/04 12:51:05;;;;;;;;;5.00;3.25;;;;;12.84;58.46;100505.63;4956655;28;63858;-61
2022/02/04 12:53:37;;;;;;;;;4.00;4.00;;;;;12.87;57.72;100503.50;4940780;28;45441;-61
2022/02/04 12:56:33;;;;;;;;;3.00;3.00;;;;;12.89;57.90;100500.75;4957617;28;46997;-60
2022/02/04 13:02:09;;;;;;;;;16.50;15.25;;;;;12.96;57.42;100491.25;4957435;28;46074;-60
2022/02/04 13:07:43;;;;;;;;;4.00;3.00;;;;;13.02;56.88;100471.31;4957304;28;45825;-61
2022/02/04 13:10:08;;;;;;;;;3.25;2.75;;;;;13.05;56.28;100478.94;4957568;28;45244;-61
2022/02/04 13:12:59;;;;;;;;;4.00;3.00;;;;;13.09;55.96;100480.28;4956745;28;45386;-60
2022/02/04 13:15:27;;;;;;;;;2.00;2.00;;;;;13.13;55.90;100486.91;4957117;28;45305;-60
2022/02/04 13:17:53;;;;;;;;;4.50;2.25;;;;;13.14;55.40;100485.94;4956275;28;46189;-60
2022/02/04 13:20:22;;;;;;;;;2.75;1.75;;;;;13.11;55.25;100482.75;4939559;28;45227;-60
2022/02/04 13:22:55;;;;;;;;;2.25;2.25;;;;;13.09;55.29;100488.19;4957031;28;45508;-61
2022/02/04 13:25:22;;;;;;;;;1.75;1.75;;;;;13.07;54.96;100482.25;4956954;28;45484;-61
2022/02/04 13:28:06;;;;;;;;;3.00;2.00;;;;;13.05;55.10;100479.75;4956596;28;46072;-61
2022/02/04 13:30:36;;;;;;;;;4.00;3.00;;;;;13.02;54.68;100481.88;4958474;28;45578;-60
2022/02/04 13:33:02;;;;;;;;;3.75;1.25;;;;;12.96;54.45;100485.97;4942868;28;45431;-60
2022/02/04 13:35:30;;;;;;;;;2.50;1.50;;;;;12.91;54.77;100498.78;4959663;28;45212;-60
2022/02/04 13:38:01;;;;;;;;;2.00;2.00;;;;;12.84;55.10;100490.63;4942878;28;45397;-60
2022/02/04 13:40:44;;;;;;;;;4.00;2.00;;;;;12.77;55.12;100484.31;4959689;28;45776;-61
2022/02/04 13:43:23;;;;;;;;;1.50;1.25;;;;;12.74;55.45;100492.50;4960108;28;45427;-60
2022/02/04 13:46:02;;;;;;;;;2.00;2.00;;;;;12.68;55.49;100499.22;4958949;28;45282;-61
2022/02/04 13:48:43;;;;;;;;;3.75;2.00;;;;;12.65;56.08;100494.25;4943676;28;47087;-60
2022/02/04 13:51:23;;;;;;;;;3.00;3.00;;;;;12.62;56.42;100499.81;4942574;28;45764;-60
2022/02/04 13:59:48;;;;;;;;;6.50;3.25;;;;;12.53;56.66;100500.72;4862246;29;45897;-60
2022/02/04 14:02:20;;;;;;;;;3.50;2.00;;;;;12.52;56.49;100488.53;4927131;28;45413;-61
2022/02/04 14:04:58;;;;;;;;;2.75;2.00;;;;;12.44;56.28;100503.31;4959849;28;45418;-61
2022/02/04 14:07:43;;;;;;;;;1.00;1.00;;;;;12.42;56.14;100513.16;4959675;28;45346;-61
2022/02/04 14:10:33;;;;;;;;;3.00;2.00;;;;;12.39;56.68;100513.47;4942624;28;46185;-60
2022/02/04 14:13:08;;;;;;;;;1.75;1.75;;;;;12.37;56.65;100511.94;4959553;28;45938;-60
2022/02/04 14:15:35;;;;;;;;;1.75;1.75;;;;;12.33;56.87;100514.03;4959807;28;45350;-60
2022/02/04 14:18:08;;;;;;;;;2.00;2.00;;;;;12.31;57.31;100523.91;4959294;28;45604;-60
2022/02/04 14:20:36;;;;;;;;;2.00;2.00;;;;;12.30;56.91;100515.16;4959483;28;47165;-60
2022/02/04 14:23:01;;;;;;;;;1.00;1.00;;;;;12.29;56.52;100510.84;4959530;28;45430;-60
2022/02/04 14:25:27;;;;;;;;;4.00;3.00;;;;;12.28;56.87;100509.19;4959603;28;45426;-60
2022/02/04 14:27:56;;;;;;;;;4.50;3.00;;;;;12.29;57.13;100520.59;4959346;28;50036;-61
2022/02/04 14:30:27;;;;;;;;;3.00;2.00;;;;;12.28;57.22;100519.75;4942124;28;46394;-60
2022/02/04 14:33:04;;;;;;;;;2.00;1.00;;;;;12.28;56.86;100525.00;4959446;28;45279;-60
2022/02/04 14:35:47;;;;;;;;;4.00;2.50;;;;;12.26;57.31;100513.78;4941852;28;45458;-60
2022/02/04 14:49:23;;;;;;;;;2.25;2.25;;;;;12.24;57.79;100536.00;4959594;28;45184;-59
2022/02/04 14:52:02;;;;;;;;;2.00;2.00;;;;;12.24;57.84;100544.72;4959264;28;47274;-60
2022/02/04 15:00:09;;;;;;;;;3.75;2.00;;;;;12.16;59.45;100558.63;4958816;28;45686;-60
2022/02/04 15:02:28;;;;;;;;;4.00;2.25;;;;;12.12;60.07;100559.09;4958909;28;46053;-60
2022/02/04 15:04:55;;;;;;;;;2.75;2.00;;;;;12.08;60.63;100570.88;4958904;28;45402;-61
2022/02/04 15:07:20;;;;;;;;;3.00;2.00;;;;;12.05;61.06;100592.22;4959315;28;45300;-60
2022/02/04 15:09:52;;;;;;;;;4.00;4.00;;;;;11.99;61.36;100618.16;4959238;28;45569;-60
2022/02/04 15:12:18;;;;;;;;;2.00;2.00;;;;;11.90;62.95;100626.88;4958513;28;45410;-60
2022/02/04 15:14:43;;;;;;;;;1.00;1.00;;;;;11.76;62.43;100632.59;4959053;28;45378;-60
2022/02/04 15:17:08;;;;;;;;;1.00;1.00;;;;;11.57;62.90;100655.34;4958098;28;63527;-61
2022/02/04 15:19:36;;;;;;;;;0.50;0.50;;;;;11.39;63.14;100660.50;4958839;28;45454;-60
2022/02/04 15:22:05;;;;;;;;;1.00;1.00;;;;;11.22;63.20;100664.59;4958107;28;45409;-60
2022/02/04 15:24:31;;;;;;;;;1.00;1.00;;;;;11.07;63.38;100683.44;4958719;28;45803;-61
2022/02/04 15:26:58;;;;;;;;;2.00;2.00;;;;;10.96;63.75;100691.44;4957964;28;57962;-61
2022/02/04 15:29:24;;;;;;;;;1.00;1.00;;;;;10.82;63.76;100693.47;4958743;28;45535;-60
2022/02/04 15:32:02;;;;;;;;;2.00;1.00;;;;;10.74;63.94;100693.28;4958036;28;63010;-60
2022/02/04 15:34:27;;;;;;;;;1.00;1.00;;;;;10.65;63.81;100707.22;4958607;28;45691;-60
2022/02/04 15:36:52;;;;;;;;;3.00;2.00;;;;;10.58;64.41;100714.00;4958017;28;45380;-61
2022/02/04 15:39:20;;;;;;;;;2.00;2.00;;;;;10.51;64.42;100719.78;4958430;28;45338;-61
2022/02/04 15:41:46;;;;;;;;;1.50;1.50;;;;;10.44;64.36;100723.88;4958494;28;45504;-60
2022/02/04 15:45:01;;;;;;;;;1.25;1.25;;;;;10.33;64.32;100737.06;4958621;28;45870;-60
2022/02/04 15:47:28;;;;;;;;;2.00;1.00;;;;;10.23;64.70;100734.38;4950219;28;45622;-60
2022/02/04 15:50:02;;;;;;;;;1.00;1.00;;;;;10.10;64.90;100734.56;4958635;28;45323;-60
2022/02/04 15:52:46;;;;;;;;;0.25;0.25;;;;;10.00;64.49;100737.13;4957484;28;46292;-60
2022/02/04 15:58:18;;;;;;;;;1.00;1.00;;;;;9.84;64.89;100745.44;4958068;28;45236;-59
2022/02/04 16:06:09;;;;;;;;;1.75;1.75;;;;;9.71;63.92;100771.00;4958110;28;45910;-59
2022/02/04 16:08:35;;;;;;;;;6.25;6.00;;;;;9.65;63.80;100778.41;4958125;28;45418;-59
2022/02/04 16:11:14;;;;;;;;;4.00;3.00;;;;;9.61;63.82;100789.28;4957984;28;45515;-61
2022/02/04 16:13:55;;;;;;;;;1.00;1.00;;;;;9.56;63.30;100792.25;4957427;28;45445;-61
2022/02/04 16:16:25;;;;;;;;;3.75;3.00;;;;;9.48;63.08;100803.38;4957972;28;45981;-61
2022/02/04 16:21:32;;;;;;;;;4.00;3.00;;;;;9.40;62.89;100815.44;4957894;28;45324;-60
2022/02/04 16:24:17;;;;;;;;;1.25;1.25;;;;;9.33;62.84;100815.94;4957968;28;47189;-61
2022/02/04 16:26:55;;;;;;;;;1.00;1.00;;;;;9.30;62.75;100815.31;4957903;28;45481;-61
2022/02/04 16:29:20;;;;;;;;;2.25;1.00;;;;;9.26;62.69;100821.78;4957463;28;45441;-62
2022/02/04 16:31:46;;;;;;;;;2.00;2.00;;;;;9.20;62.55;100831.81;4957873;28;45420;-59
2022/02/04 16:34:12;;;;;;;;;1.00;1.00;;;;;9.18;62.58;100841.56;4957353;28;46043;-59
2022/02/04 16:36:41;;;;;;;;;2.25;2.25;;;;;9.16;62.47;100847.88;4957627;28;45374;-61
2022/02/04 16:39:08;;;;;;;;;1.00;1.00;;;;;9.14;62.49;100850.63;4957184;28;45350;-59
2022/02/04 16:41:46;;;;;;;;;3.50;2.00;;;;;9.15;62.59;100856.69;4957898;28;45425;-61
2022/02/04 16:44:12;;;;;;;;;2.75;2.75;;;;;9.16;62.35;100866.22;4957738;28;45369;-61
2022/02/04 16:46:37;;;;;;;;;4.25;3.00;;;;;9.12;62.06;100867.41;4956630;28;70873;-61
2022/02/04 16:49:02;;;;;;;;;3.75;3.00;;;;;9.10;62.08;100866.69;4956689;28;68049;-61
2022/02/04 16:51:28;;;;;;;;;5.25;4.25;;;;;9.06;61.74;100881.84;4957042;28;68963;-61
2022/02/04 16:53:53;;;;;;;;;6.25;2.75;;;;;9.04;61.80;100875.88;4956232;28;68828;-59
2022/02/04 16:56:19;;;;;;;;;5.25;4.00;;;;;9.00;61.91;100888.41;4957753;28;45445;-60
2022/02/04 16:58:44;;;;;;;;;3.50;3.50;;;;;8.99;61.54;100886.72;4956337;28;69309;-61
2022/02/04 17:01:10;;;;;;;;;3.00;3.00;;;;;8.94;60.58;100891.47;4956308;28;70445;-58
2022/02/04 17:03:35;;;;;;;;;3.50;3.00;;;;;8.91;60.43;100902.19;4956541;28;45303;-61
2022/02/04 17:06:04;;;;;;;;;4.00;4.00;;;;;8.89;60.05;100914.56;4956704;28;55294;-60
2022/02/04 17:08:34;;;;;;;;;7.25;5.75;;;;;8.87;59.72;100921.72;4956897;28;45439;-61
2022/02/04 17:11:08;;;;;;;;;4.00;4.00;;;;;8.81;59.47;100937.88;4957185;28;45470;-59
2022/02/04 17:13:34;;;;;;;;;3.50;3.00;;;;;8.76;58.66;100946.94;4956896;28;46030;-59
2022/02/04 17:15:59;;;;;;;;;2.50;2.25;;;;;8.73;58.49;100951.56;4956677;28;45494;-59